DLH4CF LGMK-EDDM
Flight info
| Callsign | DLH4CF |
|---|---|
| Flight time | 2h 16m |
| Altitude | 36000 |
| Route | VARIX UL995 KEA UN132 ROPOX UM749 SKP UL617 MAKED DCT SKJ DCT LONTA UL608 DOLEV DCT PODET DCT EXHEK DCT REDBU Q112 NAPSA NAPSA4A |
| Aircraft | A321/M-SDE2E3FGIJ1LORWXYZ/HB1 |
Departure
| Time | 2026-05-08 15:06 |
|---|---|
| Airport | Mykonos Island National Airport (LGMK) |
Arrival
| Time | 2026-05-08 17:22 |
|---|---|
| Airport | Munich Airport (EDDM) |
| Time | Latitude | Longitude | Altitude | Speed | Heading |
|---|---|---|---|---|---|
| 2026-05-08 14:46 | 37.43544 | 25.34634 | 407 ft | 0 kts | 252° |
| 2026-05-08 14:59 | 37.43545 | 25.34635 | 407 ft | 2 kts | 252° |
| 2026-05-08 14:59 | 37.43541 | 25.34693 | 403 ft | 4 kts | 325° |
| 2026-05-08 14:59 | 37.43531 | 25.34700 | 405 ft | 0 kts | 341° |
| 2026-05-08 15:02 | 37.43539 | 25.34697 | 432 ft | 2 kts | 341° |
| 2026-05-08 15:02 | 37.43561 | 25.34687 | 398 ft | 4 kts | 341° |
| 2026-05-08 15:02 | 37.43598 | 25.34678 | 408 ft | 6 kts | 357° |
| 2026-05-08 15:03 | 37.43655 | 25.34702 | 410 ft | 12 kts | 27° |
| 2026-05-08 15:03 | 37.43751 | 25.34716 | 411 ft | 15 kts | 344° |
| 2026-05-08 15:03 | 37.43858 | 25.34669 | 412 ft | 18 kts | 340° |
| 2026-05-08 15:03 | 37.43986 | 25.34612 | 410 ft | 21 kts | 341° |
| 2026-05-08 15:04 | 37.44135 | 25.34546 | 408 ft | 24 kts | 340° |
| 2026-05-08 15:04 | 37.44249 | 25.34504 | 406 ft | 10 kts | 360° |
| 2026-05-08 15:04 | 37.44303 | 25.34479 | 405 ft | 9 kts | 262° |
| 2026-05-08 15:04 | 37.44256 | 25.34490 | 405 ft | 8 kts | 147° |
| 2026-05-08 15:05 | 37.44233 | 25.34502 | 406 ft | 0 kts | 160° |
| 2026-05-08 15:05 | 37.44233 | 25.34503 | 406 ft | 1 kts | 160° |
| 2026-05-08 15:05 | 37.44096 | 25.34566 | 408 ft | 57 kts | 160° |
| 2026-05-08 15:05 | 37.43484 | 25.34836 | 410 ft | 127 kts | 160° |
| 2026-05-08 15:06 | 37.42538 | 25.35229 | 829 ft | 144 kts | 161° |
| 2026-05-08 15:06 | 37.41587 | 25.35629 | 1570 ft | 145 kts | 163° |
| 2026-05-08 15:06 | 37.40602 | 25.36065 | 2075 ft | 158 kts | 162° |
| 2026-05-08 15:06 | 37.39491 | 25.36560 | 2372 ft | 180 kts | 162° |
| 2026-05-08 15:07 | 37.38257 | 25.37111 | 2692 ft | 198 kts | 162° |
| 2026-05-08 15:07 | 37.36941 | 25.37702 | 3249 ft | 201 kts | 163° |
| 2026-05-08 15:07 | 37.35607 | 25.38289 | 3849 ft | 203 kts | 167° |
| 2026-05-08 15:07 | 37.34252 | 25.38231 | 4383 ft | 200 kts | 206° |
| 2026-05-08 15:08 | 37.33227 | 25.37023 | 4709 ft | 214 kts | 239° |
| 2026-05-08 15:08 | 37.32730 | 25.35899 | 5038 ft | 219 kts | 242° |
| 2026-05-08 15:08 | 37.31790 | 25.33645 | 5910 ft | 220 kts | 243° |
| 2026-05-08 15:08 | 37.31084 | 25.31938 | 6573 ft | 221 kts | 245° |
| 2026-05-08 15:09 | 37.30369 | 25.30222 | 7172 ft | 223 kts | 245° |
| 2026-05-08 15:09 | 37.29638 | 25.28483 | 7771 ft | 225 kts | 245° |
| 2026-05-08 15:09 | 37.28911 | 25.26756 | 8357 ft | 226 kts | 245° |
| 2026-05-08 15:09 | 37.28169 | 25.24996 | 8967 ft | 228 kts | 245° |
| 2026-05-08 15:10 | 37.27457 | 25.23208 | 9563 ft | 228 kts | 253° |
| 2026-05-08 15:10 | 37.27245 | 25.21251 | 10124 ft | 228 kts | 275° |
| 2026-05-08 15:10 | 37.27706 | 25.19297 | 10381 ft | 247 kts | 298° |
| 2026-05-08 15:10 | 37.28715 | 25.17435 | 10715 ft | 265 kts | 302° |
| 2026-05-08 15:11 | 37.29769 | 25.15540 | 11333 ft | 269 kts | 302° |
| 2026-05-08 15:11 | 37.30840 | 25.13600 | 12027 ft | 271 kts | 302° |
| 2026-05-08 15:11 | 37.31916 | 25.11636 | 12734 ft | 273 kts | 302° |
| 2026-05-08 15:11 | 37.32998 | 25.09656 | 13455 ft | 275 kts | 302° |
| 2026-05-08 15:12 | 37.34084 | 25.07661 | 14144 ft | 277 kts | 302° |
| 2026-05-08 15:12 | 37.35177 | 25.05651 | 14759 ft | 280 kts | 302° |
| 2026-05-08 15:12 | 37.36244 | 25.03588 | 15346 ft | 283 kts | 297° |
| 2026-05-08 15:12 | 37.37382 | 25.01471 | 15492 ft | 305 kts | 313° |
| 2026-05-08 15:13 | 37.39195 | 24.99879 | 15626 ft | 329 kts | 324° |
| 2026-05-08 15:13 | 37.41214 | 24.98431 | 15751 ft | 347 kts | 326° |
| 2026-05-08 15:13 | 37.43389 | 24.96949 | 15877 ft | 364 kts | 327° |
| 2026-05-08 15:13 | 37.45661 | 24.95399 | 16043 ft | 377 kts | 327° |
| 2026-05-08 15:14 | 37.47974 | 24.93787 | 16382 ft | 383 kts | 326° |
| 2026-05-08 15:14 | 37.50297 | 24.92127 | 16803 ft | 386 kts | 325° |
| 2026-05-08 15:14 | 37.52626 | 24.90425 | 17313 ft | 388 kts | 325° |
| 2026-05-08 15:14 | 37.54965 | 24.88696 | 17812 ft | 390 kts | 325° |
| 2026-05-08 15:15 | 37.57308 | 24.86950 | 18292 ft | 393 kts | 324° |
| 2026-05-08 15:15 | 37.59669 | 24.85185 | 18704 ft | 395 kts | 324° |
| 2026-05-08 15:15 | 37.62043 | 24.83415 | 19113 ft | 398 kts | 324° |
| 2026-05-08 15:15 | 37.64438 | 24.81637 | 19525 ft | 401 kts | 324° |
| 2026-05-08 15:16 | 37.66847 | 24.79855 | 19938 ft | 403 kts | 324° |
| 2026-05-08 15:16 | 37.69280 | 24.78057 | 20354 ft | 406 kts | 324° |
| 2026-05-08 15:16 | 37.71727 | 24.76247 | 20762 ft | 408 kts | 324° |
| 2026-05-08 15:16 | 37.73352 | 24.75041 | 21027 ft | 410 kts | 324° |
| 2026-05-08 15:17 | 37.76634 | 24.72603 | 21552 ft | 413 kts | 324° |
| 2026-05-08 15:17 | 37.79122 | 24.70753 | 21953 ft | 416 kts | 324° |
| 2026-05-08 15:17 | 37.81624 | 24.68890 | 22338 ft | 418 kts | 324° |
| 2026-05-08 15:17 | 37.84144 | 24.67011 | 22716 ft | 421 kts | 324° |
| 2026-05-08 15:18 | 37.85823 | 24.65758 | 22970 ft | 422 kts | 324° |
| 2026-05-08 15:18 | 37.88367 | 24.63859 | 23342 ft | 425 kts | 324° |
| 2026-05-08 15:18 | 37.90922 | 24.61951 | 23692 ft | 427 kts | 324° |
| 2026-05-08 15:18 | 37.93494 | 24.60029 | 24016 ft | 429 kts | 324° |
| 2026-05-08 15:19 | 37.96074 | 24.58099 | 24362 ft | 431 kts | 324° |
| 2026-05-08 15:19 | 37.98664 | 24.56160 | 24704 ft | 432 kts | 324° |
| 2026-05-08 15:19 | 38.01231 | 24.54238 | 25028 ft | 434 kts | 323° |
| 2026-05-08 15:19 | 38.03839 | 24.52284 | 25358 ft | 436 kts | 323° |
| 2026-05-08 15:20 | 38.06457 | 24.50323 | 25687 ft | 437 kts | 323° |
| 2026-05-08 15:20 | 38.09079 | 24.48359 | 26022 ft | 437 kts | 323° |
| 2026-05-08 15:20 | 38.11702 | 24.46393 | 26343 ft | 438 kts | 323° |
| 2026-05-08 15:20 | 38.14330 | 24.44421 | 26641 ft | 439 kts | 323° |
| 2026-05-08 15:21 | 38.16973 | 24.42432 | 26880 ft | 441 kts | 323° |
| 2026-05-08 15:21 | 38.19623 | 24.40431 | 27128 ft | 442 kts | 323° |
| 2026-05-08 15:21 | 38.22237 | 24.38455 | 27464 ft | 441 kts | 323° |
| 2026-05-08 15:21 | 38.24879 | 24.36464 | 27829 ft | 439 kts | 323° |
| 2026-05-08 15:22 | 38.27505 | 24.34482 | 28197 ft | 438 kts | 322° |
| 2026-05-08 15:22 | 38.30124 | 24.32503 | 28587 ft | 436 kts | 322° |
| 2026-05-08 15:22 | 38.32729 | 24.30533 | 28963 ft | 434 kts | 322° |
| 2026-05-08 15:22 | 38.35325 | 24.28568 | 29340 ft | 433 kts | 322° |
| 2026-05-08 15:23 | 38.37911 | 24.26609 | 29718 ft | 431 kts | 322° |
| 2026-05-08 15:23 | 38.40457 | 24.24678 | 30085 ft | 429 kts | 322° |
| 2026-05-08 15:23 | 38.43023 | 24.22728 | 30405 ft | 428 kts | 322° |
| 2026-05-08 15:23 | 38.45580 | 24.20787 | 30702 ft | 427 kts | 322° |
| 2026-05-08 15:24 | 38.48132 | 24.18845 | 30995 ft | 426 kts | 321° |
| 2026-05-08 15:24 | 38.50673 | 24.16906 | 31276 ft | 424 kts | 321° |
| 2026-05-08 15:24 | 38.53209 | 24.14972 | 31560 ft | 424 kts | 321° |
| 2026-05-08 15:24 | 38.55747 | 24.13039 | 31893 ft | 423 kts | 321° |
| 2026-05-08 15:25 | 38.58249 | 24.11135 | 32148 ft | 423 kts | 321° |
| 2026-05-08 15:25 | 38.60783 | 24.09203 | 32413 ft | 423 kts | 321° |
| 2026-05-08 15:25 | 38.63316 | 24.07269 | 32710 ft | 422 kts | 321° |
| 2026-05-08 15:25 | 38.65840 | 24.05337 | 33008 ft | 421 kts | 321° |
| 2026-05-08 15:26 | 38.68349 | 24.03414 | 33342 ft | 420 kts | 321° |
| 2026-05-08 15:26 | 38.70861 | 24.01487 | 33642 ft | 419 kts | 321° |
| 2026-05-08 15:26 | 38.73359 | 23.99567 | 33927 ft | 418 kts | 321° |
| 2026-05-08 15:26 | 38.75857 | 23.97647 | 34187 ft | 417 kts | 321° |
| 2026-05-08 15:27 | 38.78318 | 23.95756 | 34417 ft | 417 kts | 321° |
| 2026-05-08 15:27 | 38.80808 | 23.93841 | 34614 ft | 417 kts | 321° |
| 2026-05-08 15:27 | 38.83302 | 23.91919 | 34846 ft | 418 kts | 321° |
| 2026-05-08 15:27 | 38.85799 | 23.89994 | 35031 ft | 419 kts | 321° |
| 2026-05-08 15:28 | 38.88299 | 23.88069 | 35233 ft | 419 kts | 321° |
| 2026-05-08 15:28 | 38.90804 | 23.86140 | 35449 ft | 419 kts | 321° |
| 2026-05-08 15:28 | 38.93316 | 23.84203 | 35652 ft | 420 kts | 321° |
| 2026-05-08 15:28 | 38.95792 | 23.82293 | 35868 ft | 420 kts | 321° |
| 2026-05-08 15:29 | 38.98305 | 23.80352 | 35994 ft | 421 kts | 321° |
| 2026-05-08 15:29 | 39.00822 | 23.78403 | 36035 ft | 423 kts | 321° |
| 2026-05-08 15:29 | 39.05890 | 23.74477 | 36036 ft | 425 kts | 321° |
| 2026-05-08 15:30 | 39.10988 | 23.70522 | 36030 ft | 430 kts | 321° |
| 2026-05-08 15:30 | 39.16102 | 23.66546 | 36025 ft | 432 kts | 321° |
| 2026-05-08 15:31 | 39.21260 | 23.62536 | 36032 ft | 431 kts | 321° |
| 2026-05-08 15:31 | 39.26400 | 23.58524 | 36035 ft | 432 kts | 321° |
| 2026-05-08 15:32 | 39.31803 | 23.54975 | 36078 ft | 444 kts | 332° |
| 2026-05-08 15:32 | 39.37611 | 23.52176 | 36063 ft | 446 kts | 332° |
| 2026-05-08 15:33 | 39.43410 | 23.49372 | 36060 ft | 448 kts | 332° |
| 2026-05-08 15:33 | 39.49263 | 23.46543 | 36060 ft | 449 kts | 332° |
| 2026-05-08 15:34 | 39.55121 | 23.43709 | 36095 ft | 449 kts | 332° |
| 2026-05-08 15:34 | 39.60995 | 23.40856 | 36072 ft | 451 kts | 333° |
| 2026-05-08 15:35 | 39.66849 | 23.38003 | 36063 ft | 452 kts | 333° |
| 2026-05-08 15:35 | 39.72751 | 23.35119 | 36063 ft | 453 kts | 333° |
| 2026-05-08 15:36 | 39.78684 | 23.32221 | 36098 ft | 454 kts | 333° |
| 2026-05-08 15:36 | 39.84565 | 23.29351 | 36087 ft | 454 kts | 334° |
| 2026-05-08 15:37 | 39.90488 | 23.26444 | 36080 ft | 455 kts | 334° |
| 2026-05-08 15:37 | 39.96425 | 23.23530 | 36076 ft | 455 kts | 334° |
| 2026-05-08 15:38 | 40.02357 | 23.20610 | 36089 ft | 455 kts | 334° |
| 2026-05-08 15:38 | 40.08254 | 23.17702 | 36085 ft | 455 kts | 334° |
| 2026-05-08 15:39 | 40.14189 | 23.14761 | 36080 ft | 456 kts | 334° |
| 2026-05-08 15:39 | 40.20121 | 23.11822 | 36082 ft | 456 kts | 334° |
| 2026-05-08 15:40 | 40.26069 | 23.08875 | 36083 ft | 456 kts | 335° |
| 2026-05-08 15:40 | 40.31973 | 23.05949 | 36071 ft | 456 kts | 335° |
| 2026-05-08 15:41 | 40.37912 | 23.02990 | 36081 ft | 457 kts | 335° |
| 2026-05-08 15:41 | 40.43872 | 23.00018 | 36070 ft | 457 kts | 335° |
| 2026-05-08 15:42 | 40.49561 | 22.96409 | 36074 ft | 453 kts | 328° |
| 2026-05-08 15:42 | 40.55105 | 22.92524 | 36084 ft | 454 kts | 328° |
| 2026-05-08 15:43 | 40.60693 | 22.88625 | 36080 ft | 454 kts | 328° |
| 2026-05-08 15:43 | 40.66273 | 22.84708 | 36081 ft | 454 kts | 328° |
| 2026-05-08 15:44 | 40.71851 | 22.80775 | 36088 ft | 454 kts | 329° |
| 2026-05-08 15:44 | 40.77438 | 22.76842 | 36091 ft | 455 kts | 329° |
| 2026-05-08 15:45 | 40.83001 | 22.72928 | 36094 ft | 454 kts | 329° |
| 2026-05-08 15:45 | 40.88591 | 22.68972 | 36092 ft | 454 kts | 329° |
| 2026-05-08 15:46 | 40.94163 | 22.65012 | 36092 ft | 454 kts | 329° |
| 2026-05-08 15:46 | 40.99738 | 22.61059 | 36091 ft | 455 kts | 329° |
| 2026-05-08 15:47 | 41.05316 | 22.57093 | 36092 ft | 455 kts | 329° |
| 2026-05-08 15:47 | 41.10898 | 22.53115 | 36091 ft | 455 kts | 329° |
| 2026-05-08 15:48 | 41.16029 | 22.48304 | 36088 ft | 451 kts | 318° |
| 2026-05-08 15:48 | 41.18456 | 22.45666 | 36097 ft | 451 kts | 319° |
| 2026-05-08 15:49 | 41.23326 | 22.40392 | 36089 ft | 452 kts | 319° |
| 2026-05-08 15:49 | 41.28198 | 22.35111 | 36084 ft | 452 kts | 319° |
| 2026-05-08 15:50 | 41.33067 | 22.29802 | 36072 ft | 453 kts | 319° |
| 2026-05-08 15:50 | 41.37934 | 22.24480 | 36073 ft | 453 kts | 319° |
| 2026-05-08 15:51 | 41.42806 | 22.19149 | 36066 ft | 453 kts | 319° |
| 2026-05-08 15:51 | 41.47678 | 22.13822 | 36068 ft | 453 kts | 319° |
| 2026-05-08 15:52 | 41.52558 | 22.08477 | 36070 ft | 454 kts | 319° |
| 2026-05-08 15:52 | 41.57432 | 22.03100 | 36062 ft | 455 kts | 319° |
| 2026-05-08 15:53 | 41.62317 | 21.97707 | 36058 ft | 455 kts | 319° |
| 2026-05-08 15:53 | 41.67197 | 21.92320 | 36057 ft | 455 kts | 319° |
| 2026-05-08 15:54 | 41.72079 | 21.86927 | 36061 ft | 455 kts | 319° |
| 2026-05-08 15:54 | 41.76958 | 21.81512 | 36054 ft | 456 kts | 318° |
| 2026-05-08 15:55 | 41.81837 | 21.76079 | 36060 ft | 456 kts | 318° |
| 2026-05-08 15:55 | 41.89145 | 21.67926 | 36059 ft | 456 kts | 318° |
| 2026-05-08 15:56 | 41.94020 | 21.62487 | 36059 ft | 456 kts | 319° |
| 2026-05-08 15:56 | 41.99006 | 21.57215 | 36058 ft | 456 kts | 321° |
| 2026-05-08 15:57 | 42.04073 | 21.52051 | 36059 ft | 457 kts | 321° |
| 2026-05-08 15:57 | 42.09129 | 21.46859 | 36054 ft | 457 kts | 320° |
| 2026-05-08 15:58 | 42.13309 | 21.42507 | 36054 ft | 457 kts | 320° |
| 2026-05-08 15:58 | 42.17896 | 21.36649 | 36062 ft | 454 kts | 308° |
| 2026-05-08 15:59 | 42.21973 | 21.30146 | 36066 ft | 454 kts | 308° |
| 2026-05-08 15:59 | 42.26066 | 21.23652 | 36071 ft | 454 kts | 308° |
| 2026-05-08 16:00 | 42.30164 | 21.17155 | 36073 ft | 454 kts | 308° |
| 2026-05-08 16:00 | 42.34254 | 21.10640 | 36085 ft | 454 kts | 308° |
| 2026-05-08 16:01 | 42.38328 | 21.04130 | 36086 ft | 453 kts | 308° |
| 2026-05-08 16:01 | 42.42392 | 20.97624 | 36086 ft | 452 kts | 308° |
| 2026-05-08 16:02 | 42.46448 | 20.91118 | 36084 ft | 452 kts | 308° |
| 2026-05-08 16:02 | 42.50498 | 20.84606 | 36084 ft | 452 kts | 308° |
| 2026-05-08 16:03 | 42.54543 | 20.78087 | 36088 ft | 451 kts | 308° |
| 2026-05-08 16:03 | 42.58574 | 20.71574 | 36080 ft | 450 kts | 308° |
| 2026-05-08 16:04 | 42.62595 | 20.65068 | 36074 ft | 449 kts | 308° |
| 2026-05-08 16:04 | 42.66602 | 20.58566 | 36068 ft | 449 kts | 308° |
| 2026-05-08 16:05 | 42.70599 | 20.52051 | 36066 ft | 449 kts | 308° |
| 2026-05-08 16:05 | 42.74597 | 20.45530 | 36069 ft | 449 kts | 308° |
| 2026-05-08 16:06 | 42.78590 | 20.39002 | 36070 ft | 449 kts | 307° |
| 2026-05-08 16:06 | 42.82579 | 20.32470 | 36065 ft | 449 kts | 308° |
| 2026-05-08 16:07 | 42.87015 | 20.26447 | 36065 ft | 451 kts | 314° |
| 2026-05-08 16:07 | 42.91569 | 20.20563 | 36064 ft | 451 kts | 314° |
| 2026-05-08 16:08 | 42.96122 | 20.14671 | 36059 ft | 451 kts | 314° |
| 2026-05-08 16:08 | 43.00664 | 20.08771 | 36065 ft | 451 kts | 314° |
| 2026-05-08 16:09 | 43.05201 | 20.02869 | 36057 ft | 450 kts | 314° |
| 2026-05-08 16:09 | 43.09734 | 19.96961 | 36056 ft | 450 kts | 314° |
| 2026-05-08 16:10 | 43.14253 | 19.91043 | 36049 ft | 450 kts | 314° |
| 2026-05-08 16:10 | 43.18769 | 19.85120 | 36049 ft | 450 kts | 314° |
| 2026-05-08 16:11 | 43.23288 | 19.79193 | 36056 ft | 450 kts | 314° |
| 2026-05-08 16:11 | 43.27803 | 19.73260 | 36053 ft | 450 kts | 314° |
| 2026-05-08 16:12 | 43.32315 | 19.67311 | 36047 ft | 449 kts | 314° |
| 2026-05-08 16:12 | 43.36816 | 19.61359 | 36045 ft | 449 kts | 314° |
| 2026-05-08 16:13 | 43.41321 | 19.55396 | 36042 ft | 449 kts | 314° |
| 2026-05-08 16:13 | 43.45821 | 19.49418 | 36049 ft | 450 kts | 313° |
| 2026-05-08 16:14 | 43.50315 | 19.43432 | 36041 ft | 449 kts | 313° |
| 2026-05-08 16:14 | 43.54815 | 19.37433 | 36042 ft | 450 kts | 313° |
| 2026-05-08 16:15 | 43.59315 | 19.31420 | 36043 ft | 450 kts | 313° |
| 2026-05-08 16:15 | 43.63810 | 19.25407 | 36049 ft | 451 kts | 313° |
| 2026-05-08 16:16 | 43.68310 | 19.19371 | 36042 ft | 451 kts | 313° |
| 2026-05-08 16:16 | 43.72806 | 19.13323 | 36043 ft | 451 kts | 313° |
| 2026-05-08 16:17 | 43.76539 | 19.08287 | 36043 ft | 451 kts | 313° |
| 2026-05-08 16:17 | 43.81791 | 19.01199 | 36056 ft | 451 kts | 313° |
| 2026-05-08 16:18 | 43.86285 | 18.95120 | 36053 ft | 451 kts | 313° |
| 2026-05-08 16:18 | 43.90767 | 18.89036 | 36053 ft | 451 kts | 313° |
| 2026-05-08 16:19 | 43.95217 | 18.82978 | 36050 ft | 451 kts | 313° |
| 2026-05-08 16:19 | 43.99724 | 18.76840 | 36067 ft | 451 kts | 313° |
| 2026-05-08 16:20 | 44.04198 | 18.70724 | 36062 ft | 451 kts | 312° |
| 2026-05-08 16:20 | 44.08671 | 18.64598 | 36056 ft | 451 kts | 312° |
| 2026-05-08 16:21 | 44.13143 | 18.58472 | 36242 ft | 450 kts | 312° |
| 2026-05-08 16:21 | 44.15366 | 18.55415 | 36568 ft | 448 kts | 312° |
| 2026-05-08 16:21 | 44.17578 | 18.52370 | 36852 ft | 446 kts | 312° |
| 2026-05-08 16:22 | 44.19777 | 18.49333 | 37119 ft | 444 kts | 312° |
| 2026-05-08 16:22 | 44.21971 | 18.46300 | 37363 ft | 443 kts | 312° |
| 2026-05-08 16:22 | 44.24155 | 18.43283 | 37599 ft | 442 kts | 312° |
| 2026-05-08 16:22 | 44.26333 | 18.40274 | 37813 ft | 440 kts | 312° |
| 2026-05-08 16:23 | 44.28508 | 18.37272 | 38005 ft | 440 kts | 312° |
| 2026-05-08 16:23 | 44.30685 | 18.34260 | 38033 ft | 440 kts | 312° |
| 2026-05-08 16:23 | 44.35023 | 18.28234 | 38029 ft | 440 kts | 312° |
| 2026-05-08 16:24 | 44.39358 | 18.22206 | 38032 ft | 439 kts | 311° |
| 2026-05-08 16:24 | 44.43686 | 18.16179 | 38031 ft | 439 kts | 311° |
| 2026-05-08 16:25 | 44.48007 | 18.10143 | 38035 ft | 439 kts | 311° |
| 2026-05-08 16:25 | 44.52330 | 18.04081 | 38045 ft | 440 kts | 311° |
| 2026-05-08 16:26 | 44.56659 | 17.98015 | 38054 ft | 440 kts | 311° |
| 2026-05-08 16:26 | 44.60986 | 17.91928 | 38059 ft | 441 kts | 311° |
| 2026-05-08 16:27 | 44.65309 | 17.85827 | 38057 ft | 441 kts | 311° |
| 2026-05-08 16:27 | 44.69634 | 17.79723 | 38057 ft | 441 kts | 311° |
| 2026-05-08 16:28 | 44.73953 | 17.73612 | 38056 ft | 441 kts | 311° |
| 2026-05-08 16:28 | 44.78271 | 17.67483 | 38064 ft | 441 kts | 311° |
| 2026-05-08 16:29 | 44.82587 | 17.61348 | 38062 ft | 441 kts | 311° |
| 2026-05-08 16:29 | 44.86898 | 17.55200 | 38057 ft | 441 kts | 311° |
| 2026-05-08 16:30 | 44.91206 | 17.49039 | 38055 ft | 441 kts | 311° |
| 2026-05-08 16:30 | 44.95518 | 17.42872 | 38064 ft | 441 kts | 311° |
| 2026-05-08 16:31 | 44.99826 | 17.36698 | 38062 ft | 441 kts | 311° |
| 2026-05-08 16:31 | 45.04124 | 17.30521 | 38059 ft | 441 kts | 311° |
| 2026-05-08 16:32 | 45.08383 | 17.24373 | 38063 ft | 440 kts | 310° |
| 2026-05-08 16:32 | 45.12700 | 17.18135 | 38062 ft | 440 kts | 310° |
| 2026-05-08 16:33 | 45.16982 | 17.11934 | 38068 ft | 440 kts | 310° |
| 2026-05-08 16:33 | 45.21261 | 17.05720 | 38063 ft | 440 kts | 310° |
| 2026-05-08 16:34 | 45.25538 | 16.99500 | 38064 ft | 440 kts | 310° |
| 2026-05-08 16:34 | 45.29784 | 16.93314 | 38068 ft | 440 kts | 310° |
| 2026-05-08 16:35 | 45.34080 | 16.87033 | 38071 ft | 440 kts | 310° |
| 2026-05-08 16:35 | 45.38340 | 16.80777 | 38073 ft | 440 kts | 310° |
| 2026-05-08 16:36 | 45.42599 | 16.74513 | 38066 ft | 440 kts | 310° |
| 2026-05-08 16:36 | 45.46867 | 16.68249 | 38064 ft | 441 kts | 310° |
| 2026-05-08 16:37 | 45.51132 | 16.61978 | 38064 ft | 441 kts | 310° |
| 2026-05-08 16:37 | 45.55358 | 16.55719 | 38077 ft | 441 kts | 310° |
| 2026-05-08 16:38 | 45.59607 | 16.49413 | 38070 ft | 441 kts | 310° |
| 2026-05-08 16:38 | 45.63855 | 16.43104 | 38065 ft | 441 kts | 310° |
| 2026-05-08 16:39 | 45.68101 | 16.36781 | 38064 ft | 441 kts | 310° |
| 2026-05-08 16:39 | 45.72346 | 16.30456 | 38059 ft | 441 kts | 310° |
| 2026-05-08 16:40 | 45.75898 | 16.25145 | 38067 ft | 441 kts | 309° |
| 2026-05-08 16:40 | 45.80134 | 16.18799 | 38056 ft | 440 kts | 309° |
| 2026-05-08 16:41 | 45.84359 | 16.12445 | 38056 ft | 440 kts | 309° |
| 2026-05-08 16:42 | 45.90689 | 16.02903 | 38054 ft | 440 kts | 309° |
| 2026-05-08 16:42 | 45.94905 | 15.96531 | 38067 ft | 440 kts | 309° |
| 2026-05-08 16:43 | 45.99119 | 15.90148 | 38070 ft | 440 kts | 309° |
| 2026-05-08 16:43 | 46.03333 | 15.83750 | 38065 ft | 440 kts | 309° |
| 2026-05-08 16:44 | 46.07547 | 15.77348 | 38065 ft | 441 kts | 309° |
| 2026-05-08 16:44 | 46.11757 | 15.70925 | 38074 ft | 441 kts | 309° |
| 2026-05-08 16:45 | 46.15971 | 15.64515 | 38073 ft | 442 kts | 312° |
| 2026-05-08 16:45 | 46.21000 | 15.59302 | 38070 ft | 449 kts | 324° |
| 2026-05-08 16:46 | 46.26352 | 15.54640 | 38066 ft | 449 kts | 324° |
| 2026-05-08 16:46 | 46.31696 | 15.49957 | 38068 ft | 449 kts | 324° |
| 2026-05-08 16:47 | 46.37034 | 15.45260 | 38073 ft | 449 kts | 324° |
| 2026-05-08 16:47 | 46.42377 | 15.40555 | 38073 ft | 450 kts | 324° |
| 2026-05-08 16:48 | 46.47722 | 15.35850 | 38062 ft | 450 kts | 324° |
| 2026-05-08 16:48 | 46.53070 | 15.31122 | 38065 ft | 450 kts | 324° |
| 2026-05-08 16:49 | 46.58419 | 15.26373 | 38081 ft | 451 kts | 323° |
| 2026-05-08 16:49 | 46.63762 | 15.21613 | 38082 ft | 450 kts | 323° |
| 2026-05-08 16:50 | 46.68974 | 15.16626 | 38084 ft | 445 kts | 315° |
| 2026-05-08 16:50 | 46.73112 | 15.10083 | 38075 ft | 438 kts | 304° |
| 2026-05-08 16:51 | 46.76951 | 15.03172 | 38073 ft | 439 kts | 305° |
| 2026-05-08 16:51 | 46.80806 | 14.96257 | 38070 ft | 440 kts | 305° |
| 2026-05-08 16:52 | 46.84669 | 14.89326 | 38088 ft | 440 kts | 305° |
| 2026-05-08 16:52 | 46.88528 | 14.82380 | 38091 ft | 441 kts | 305° |
| 2026-05-08 16:53 | 46.94304 | 14.71919 | 38083 ft | 441 kts | 304° |
| 2026-05-08 16:53 | 46.98150 | 14.64939 | 38076 ft | 441 kts | 304° |
| 2026-05-08 16:54 | 47.01996 | 14.57941 | 38079 ft | 441 kts | 304° |
| 2026-05-08 16:54 | 47.05843 | 14.50914 | 38103 ft | 442 kts | 305° |
| 2026-05-08 16:55 | 47.09688 | 14.43887 | 38099 ft | 441 kts | 305° |
| 2026-05-08 16:55 | 47.13531 | 14.36856 | 38094 ft | 441 kts | 305° |
| 2026-05-08 16:56 | 47.17363 | 14.29812 | 38091 ft | 441 kts | 304° |
| 2026-05-08 16:56 | 47.21188 | 14.22760 | 38093 ft | 441 kts | 304° |
| 2026-05-08 16:57 | 47.25011 | 14.15695 | 38100 ft | 442 kts | 304° |
| 2026-05-08 16:57 | 47.28829 | 14.08612 | 38104 ft | 442 kts | 305° |
| 2026-05-08 16:58 | 47.32638 | 14.01521 | 38093 ft | 441 kts | 304° |
| 2026-05-08 16:58 | 47.36446 | 13.94414 | 37858 ft | 441 kts | 304° |
| 2026-05-08 16:59 | 47.38344 | 13.90870 | 37595 ft | 440 kts | 304° |
| 2026-05-08 16:59 | 47.40241 | 13.87325 | 37327 ft | 440 kts | 304° |
| 2026-05-08 16:59 | 47.42137 | 13.83779 | 37074 ft | 440 kts | 304° |
| 2026-05-08 16:59 | 47.44032 | 13.80229 | 36811 ft | 441 kts | 304° |
| 2026-05-08 17:00 | 47.45933 | 13.76667 | 36552 ft | 441 kts | 303° |
| 2026-05-08 17:00 | 47.47833 | 13.73107 | 36289 ft | 442 kts | 303° |
| 2026-05-08 17:00 | 47.49735 | 13.69536 | 36035 ft | 442 kts | 303° |
| 2026-05-08 17:00 | 47.51637 | 13.65955 | 35792 ft | 443 kts | 303° |
| 2026-05-08 17:01 | 47.53515 | 13.62412 | 35481 ft | 443 kts | 303° |
| 2026-05-08 17:01 | 47.55419 | 13.58811 | 34687 ft | 445 kts | 302° |
| 2026-05-08 17:01 | 47.57330 | 13.55196 | 33844 ft | 448 kts | 302° |
| 2026-05-08 17:01 | 47.59249 | 13.51563 | 32952 ft | 448 kts | 302° |
| 2026-05-08 17:02 | 47.61171 | 13.47918 | 32083 ft | 448 kts | 302° |
| 2026-05-08 17:02 | 47.63090 | 13.44271 | 31187 ft | 450 kts | 302° |
| 2026-05-08 17:02 | 47.65008 | 13.40618 | 30326 ft | 448 kts | 303° |
| 2026-05-08 17:02 | 47.66928 | 13.36963 | 29256 ft | 449 kts | 303° |
| 2026-05-08 17:03 | 47.68845 | 13.33314 | 28219 ft | 447 kts | 303° |
| 2026-05-08 17:03 | 47.70757 | 13.29669 | 27229 ft | 446 kts | 304° |
| 2026-05-08 17:03 | 47.72665 | 13.26024 | 26094 ft | 447 kts | 304° |
| 2026-05-08 17:03 | 47.74577 | 13.22371 | 24936 ft | 450 kts | 305° |
| 2026-05-08 17:04 | 47.76508 | 13.18680 | 23824 ft | 453 kts | 305° |
| 2026-05-08 17:04 | 47.78437 | 13.14992 | 22814 ft | 450 kts | 306° |
| 2026-05-08 17:04 | 47.80341 | 13.11340 | 21967 ft | 443 kts | 306° |
| 2026-05-08 17:04 | 47.82214 | 13.07732 | 21112 ft | 438 kts | 306° |
| 2026-05-08 17:05 | 47.84060 | 13.04166 | 20266 ft | 432 kts | 306° |
| 2026-05-08 17:05 | 47.85883 | 13.00639 | 19429 ft | 427 kts | 306° |
| 2026-05-08 17:05 | 47.87684 | 12.97154 | 18618 ft | 422 kts | 306° |
| 2026-05-08 17:05 | 47.89461 | 12.93710 | 17735 ft | 417 kts | 306° |
| 2026-05-08 17:06 | 47.91214 | 12.90312 | 16934 ft | 410 kts | 306° |
| 2026-05-08 17:06 | 47.92938 | 12.86968 | 16146 ft | 404 kts | 306° |
| 2026-05-08 17:06 | 47.94641 | 12.83665 | 15372 ft | 399 kts | 306° |
| 2026-05-08 17:06 | 47.96209 | 12.80290 | 14627 ft | 393 kts | 300° |
| 2026-05-08 17:07 | 47.97595 | 12.76808 | 13899 ft | 387 kts | 299° |
| 2026-05-08 17:07 | 47.98960 | 12.73374 | 13155 ft | 382 kts | 299° |
| 2026-05-08 17:07 | 48.00299 | 12.70006 | 12499 ft | 374 kts | 299° |
| 2026-05-08 17:07 | 48.01614 | 12.66704 | 11862 ft | 368 kts | 299° |
| 2026-05-08 17:08 | 48.02912 | 12.63432 | 11374 ft | 363 kts | 299° |
| 2026-05-08 17:08 | 48.04199 | 12.60176 | 11136 ft | 364 kts | 299° |
| 2026-05-08 17:08 | 48.05485 | 12.56920 | 10888 ft | 363 kts | 299° |
| 2026-05-08 17:08 | 48.06769 | 12.53685 | 10645 ft | 362 kts | 299° |
| 2026-05-08 17:09 | 48.08058 | 12.50462 | 10400 ft | 360 kts | 299° |
| 2026-05-08 17:09 | 48.09341 | 12.47259 | 10161 ft | 359 kts | 299° |
| 2026-05-08 17:09 | 48.10622 | 12.44061 | 9946 ft | 357 kts | 299° |
| 2026-05-08 17:09 | 48.11900 | 12.40869 | 9827 ft | 357 kts | 299° |
| 2026-05-08 17:10 | 48.13177 | 12.37682 | 9676 ft | 357 kts | 300° |
| 2026-05-08 17:10 | 48.14750 | 12.34810 | 9556 ft | 359 kts | 317° |
| 2026-05-08 17:10 | 48.16852 | 12.32782 | 9426 ft | 362 kts | 332° |
| 2026-05-08 17:10 | 48.19123 | 12.31147 | 9163 ft | 362 kts | 333° |
| 2026-05-08 17:11 | 48.21389 | 12.29526 | 8656 ft | 359 kts | 333° |
| 2026-05-08 17:11 | 48.23635 | 12.27917 | 8156 ft | 357 kts | 333° |
| 2026-05-08 17:11 | 48.25862 | 12.26291 | 7669 ft | 354 kts | 330° |
| 2026-05-08 17:11 | 48.27717 | 12.23944 | 7171 ft | 349 kts | 305° |
| 2026-05-08 17:12 | 48.28626 | 12.20626 | 6866 ft | 347 kts | 277° |
| 2026-05-08 17:12 | 48.28493 | 12.17018 | 6748 ft | 348 kts | 260° |
| 2026-05-08 17:12 | 48.28148 | 12.13415 | 6625 ft | 349 kts | 262° |
| 2026-05-08 17:12 | 48.27871 | 12.09802 | 6492 ft | 349 kts | 263° |
| 2026-05-08 17:13 | 48.27625 | 12.06176 | 6378 ft | 349 kts | 264° |
| 2026-05-08 17:13 | 48.27388 | 12.02547 | 6213 ft | 348 kts | 264° |
| 2026-05-08 17:13 | 48.27151 | 11.98967 | 5487 ft | 344 kts | 264° |
| 2026-05-08 17:13 | 48.26902 | 11.95382 | 5119 ft | 347 kts | 264° |
| 2026-05-08 17:14 | 48.26638 | 11.91763 | 4987 ft | 350 kts | 264° |
| 2026-05-08 17:14 | 48.26364 | 11.88157 | 5003 ft | 340 kts | 263° |
| 2026-05-08 17:14 | 48.26095 | 11.84699 | 5007 ft | 331 kts | 264° |
| 2026-05-08 17:14 | 48.25834 | 11.81314 | 5007 ft | 317 kts | 263° |
| 2026-05-08 17:15 | 48.25589 | 11.78147 | 5004 ft | 295 kts | 264° |
| 2026-05-08 17:15 | 48.25360 | 11.75188 | 5009 ft | 278 kts | 263° |
| 2026-05-08 17:15 | 48.25136 | 11.72314 | 5011 ft | 278 kts | 264° |
| 2026-05-08 17:15 | 48.24912 | 11.69447 | 5008 ft | 277 kts | 264° |
| 2026-05-08 17:16 | 48.24688 | 11.66574 | 5010 ft | 276 kts | 263° |
| 2026-05-08 17:16 | 48.24463 | 11.63710 | 5008 ft | 277 kts | 263° |
| 2026-05-08 17:16 | 48.24239 | 11.60866 | 4723 ft | 274 kts | 264° |
| 2026-05-08 17:16 | 48.24037 | 11.58032 | 4376 ft | 272 kts | 269° |
| 2026-05-08 17:17 | 48.24416 | 11.55322 | 4147 ft | 263 kts | 299° |
| 2026-05-08 17:17 | 48.25569 | 11.53340 | 4009 ft | 246 kts | 330° |
| 2026-05-08 17:17 | 48.27108 | 11.52608 | 4008 ft | 225 kts | 2° |
| 2026-05-08 17:17 | 48.28628 | 11.52864 | 4012 ft | 218 kts | 12° |
| 2026-05-08 17:18 | 48.29989 | 11.53767 | 4006 ft | 215 kts | 44° |
| 2026-05-08 17:18 | 48.30976 | 11.55441 | 3918 ft | 214 kts | 53° |
| 2026-05-08 17:18 | 48.31866 | 11.57229 | 3587 ft | 212 kts | 54° |
| 2026-05-08 17:18 | 48.32654 | 11.58995 | 3505 ft | 195 kts | 64° |
| 2026-05-08 17:19 | 48.32960 | 11.60913 | 3361 ft | 186 kts | 82° |
| 2026-05-08 17:19 | 48.33101 | 11.62759 | 3145 ft | 170 kts | 82° |
| 2026-05-08 17:19 | 48.33236 | 11.64495 | 2922 ft | 165 kts | 82° |
| 2026-05-08 17:19 | 48.33369 | 11.66190 | 2706 ft | 159 kts | 81° |
| 2026-05-08 17:20 | 48.33493 | 11.67769 | 2495 ft | 147 kts | 81° |
| 2026-05-08 17:20 | 48.33609 | 11.69255 | 2301 ft | 142 kts | 82° |
| 2026-05-08 17:20 | 48.33724 | 11.70730 | 2107 ft | 142 kts | 81° |
| 2026-05-08 17:20 | 48.33801 | 11.71717 | 1986 ft | 144 kts | 81° |
| 2026-05-08 17:21 | 48.33932 | 11.73206 | 1795 ft | 143 kts | 81° |
| 2026-05-08 17:21 | 48.34031 | 11.74677 | 1607 ft | 141 kts | 82° |
| 2026-05-08 17:21 | 48.34141 | 11.76130 | 1496 ft | 132 kts | 82° |
| 2026-05-08 17:21 | 48.34240 | 11.77309 | 1486 ft | 91 kts | 83° |
| 2026-05-08 17:22 | 48.34303 | 11.78047 | 1486 ft | 61 kts | 85° |
| 2026-05-08 17:22 | 48.34340 | 11.78633 | 1477 ft | 53 kts | 82° |
| 2026-05-08 17:22 | 48.34388 | 11.79024 | 1483 ft | 29 kts | 69° |
| 2026-05-08 17:22 | 48.34494 | 11.79276 | 1479 ft | 28 kts | 53° |
| 2026-05-08 17:23 | 48.34577 | 11.79443 | 1483 ft | 7 kts | 54° |
| 2026-05-08 17:23 | 48.34587 | 11.79463 | 1478 ft | 0 kts | 53° |
| 2026-05-08 17:23 | 48.34590 | 11.79470 | 1480 ft | 1 kts | 53° |
| 2026-05-08 17:23 | 48.34595 | 11.79480 | 1481 ft | 1 kts | 53° |
| 2026-05-08 17:24 | 48.34597 | 11.79484 | 1480 ft | 0 kts | 53° |
| 2026-05-08 17:24 | 48.34615 | 11.79516 | 1478 ft | 9 kts | 45° |
| 2026-05-08 17:24 | 48.34699 | 11.79556 | 1477 ft | 17 kts | 359° |
| 2026-05-08 17:25 | 48.34834 | 11.79557 | 1486 ft | 20 kts | 0° |
| 2026-05-08 17:25 | 48.34914 | 11.79547 | 1482 ft | 11 kts | 353° |
| 2026-05-08 17:25 | 48.34998 | 11.79532 | 1480 ft | 13 kts | 353° |
| 2026-05-08 17:25 | 48.35063 | 11.79499 | 1479 ft | 8 kts | 287° |
| 2026-05-08 17:26 | 48.35061 | 11.79408 | 1486 ft | 8 kts | 264° |
| 2026-05-08 17:26 | 48.35059 | 11.79383 | 1483 ft | 0 kts | 263° |